Time;durP1;ratioP1;P1;durP2;ratioP2;P2;SDS_P1;SDS_P2;PMS_P1;PMS_P2;Temp;Humidity;BMP_temperature;BMP_pressure;BME280_temperature;BME280_humidity;BME280_pressure;Samples;Min_cycle;Max_cycle;Signal;HPM_P1;HPM_P2
2023/12/03 00:00:02;;;;;;;52.20;32.00;;;;;;;-2.65;83.49;96449.02;107126;1245;101132;-86
2023/12/03 00:02:36;;;;;;;52.20;31.60;;;;;;;-2.68;83.45;96452.65;106960;1256;100296;-75
2023/12/03 00:05:04;;;;;;;49.80;30.90;;;;;;;-2.69;83.43;96453.66;107081;1245;99734;-86
2023/12/03 00:07:38;;;;;;;52.30;31.70;;;;;;;-2.69;83.54;96452.80;107139;1241;96801;-84
2023/12/03 00:10:25;;;;;;;49.90;31.10;;;;;;;-2.68;83.39;96456.55;107183;1254;97087;-85
2023/12/03 00:12:51;;;;;;;48.50;30.10;;;;;;;-2.68;83.39;96467.64;107153;1254;102137;-85
2023/12/03 00:15:18;;;;;;;46.30;30.00;;;;;;;-2.68;83.45;96477.88;107152;1254;97395;-86
2023/12/03 00:17:45;;;;;;;49.40;30.00;;;;;;;-2.70;83.43;96482.81;107204;1244;97383;-83
2023/12/03 00:20:11;;;;;;;46.90;30.20;;;;;;;-2.69;83.48;96491.89;107213;1254;97106;-78
2023/12/03 00:22:40;;;;;;;46.30;27.90;;;;;;;-2.67;83.53;96498.03;107184;1247;102188;-76
2023/12/03 00:25:07;;;;;;;46.60;28.00;;;;;;;-2.67;83.49;96502.26;106991;1254;99949;-75
2023/12/03 00:27:34;;;;;;;49.10;29.20;;;;;;;-2.68;83.49;96501.09;107212;1241;97474;-75
2023/12/03 00:30:04;;;;;;;44.10;27.30;;;;;;;-2.67;83.46;96508.90;107102;1254;97730;-75
2023/12/03 00:32:39;;;;;;;44.50;28.20;;;;;;;-2.66;83.52;96512.33;107161;1244;97068;-83
2023/12/03 00:35:07;;;;;;;42.90;28.30;;;;;;;-2.68;83.48;96514.48;107113;1254;102108;-82
2023/12/03 00:37:38;;;;;;;50.70;30.20;;;;;;;-2.70;83.38;96524.52;107097;1253;96770;-81
2023/12/03 00:40:06;;;;;;;46.90;29.90;;;;;;;-2.71;83.41;96528.64;107050;1245;100069;-82
2023/12/03 00:42:33;;;;;;;44.30;28.50;;;;;;;-2.70;83.50;96531.45;107062;1244;97851;-83
2023/12/03 00:44:59;;;;;;;44.30;28.20;;;;;;;-2.69;83.54;96532.91;107062;1256;96827;-82
2023/12/03 00:47:29;;;;;;;45.70;29.00;;;;;;;-2.68;83.46;96535.27;107121;1246;96573;-82
2023/12/03 00:50:21;;;;;;;46.40;28.80;;;;;;;-2.70;83.37;96543.77;106855;1251;100254;-83
2023/12/03 00:53:03;;;;;;;44.80;29.60;;;;;;;-2.74;83.28;96555.59;106781;1241;98455;-82
2023/12/03 00:55:40;;;;;;;43.60;27.50;;;;;;;-2.76;83.37;96561.25;107182;1256;96621;-84
2023/12/03 00:58:07;;;;;;;46.90;28.50;;;;;;;-2.75;83.43;96562.16;107152;1244;97097;-82
2023/12/03 01:00:37;;;;;;;44.70;29.40;;;;;;;-2.70;83.45;96562.26;107111;1245;96571;-77
2023/12/03 01:03:05;;;;;;;47.20;28.80;;;;;;;-2.71;83.35;96563.88;107139;1255;100309;-87
2023/12/03 01:05:42;;;;;;;46.20;28.80;;;;;;;-2.73;83.30;96565.18;107091;1244;99714;-88
2023/12/03 01:08:09;;;;;;;43.80;28.80;;;;;;;-2.75;83.31;96568.50;107097;1251;96786;-86
2023/12/03 01:10:43;;;;;;;45.40;28.80;;;;;;;-2.74;83.28;96572.61;107129;1241;96632;-86
2023/12/03 01:13:10;;;;;;;45.20;28.30;;;;;;;-2.72;83.20;96579.83;107113;1255;102217;-83
2023/12/03 01:15:47;;;;;;;45.00;27.10;;;;;;;-2.70;83.33;96589.31;107129;1245;97480;-75
2023/12/03 01:18:14;;;;;;;47.80;28.20;;;;;;;-2.68;83.17;96584.73;107137;1245;99570;-74
2023/12/03 01:20:51;;;;;;;47.50;29.30;;;;;;;-2.68;83.03;96580.21;107162;1244;96780;-75
2023/12/03 01:23:17;;;;;;;45.40;29.10;;;;;;;-2.68;83.02;96580.54;107093;1254;98460;-75
2023/12/03 01:25:51;;;;;;;49.70;29.40;;;;;;;-2.67;82.91;96584.83;107130;1244;97676;-74
2023/12/03 01:28:20;;;;;;;45.20;28.90;;;;;;;-2.64;82.83;96587.01;107099;1241;100284;-75
2023/12/03 01:30:57;;;;;;;51.10;29.90;;;;;;;-2.67;82.74;96586.80;106914;1244;99750;-84
2023/12/03 01:33:24;;;;;;;49.30;30.20;;;;;;;-2.72;82.62;96594.46;107154;1255;96654;-82
2023/12/03 01:35:50;;;;;;;53.00;31.60;;;;;;;-2.79;82.44;96602.02;107192;1254;96574;-83
2023/12/03 01:38:17;;;;;;;52.20;32.40;;;;;;;-2.81;82.64;96606.68;107204;1241;97062;-75
2023/12/03 01:40:58;;;;;;;52.70;33.80;;;;;;;-2.80;82.67;96607.79;107175;1254;96610;-77
2023/12/03 01:43:25;;;;;;;52.60;33.30;;;;;;;-2.79;82.57;96609.41;107141;1245;96665;-76
2023/12/03 01:45:51;;;;;;;55.20;34.50;;;;;;;-2.79;82.56;96611.73;107124;1241;97472;-75
2023/12/03 01:48:20;;;;;;;55.20;35.60;;;;;;;-2.80;82.53;96616.58;107169;1253;97541;-78
2023/12/03 01:50:49;;;;;;;55.40;33.80;;;;;;;-2.83;82.51;96620.27;106881;1241;100228;-77
2023/12/03 01:53:19;;;;;;;60.80;35.70;;;;;;;-2.81;82.54;96624.97;107035;1245;99948;-76
2023/12/03 01:55:46;;;;;;;62.30;37.70;;;;;;;-2.79;82.60;96634.05;107139;1242;97398;-76
2023/12/03 01:58:12;;;;;;;62.10;38.60;;;;;;;-2.78;82.54;96640.36;107126;1254;96606;-87
2023/12/03 02:00:39;;;;;;;63.20;38.70;;;;;;;-2.75;82.60;96648.15;107153;1242;96561;-85
2023/12/03 02:03:06;;;;;;;64.30;38.80;;;;;;;-2.72;82.58;96651.66;107164;1245;96785;-85
2023/12/03 02:05:32;;;;;;;69.60;40.70;;;;;;;-2.72;82.49;96654.30;107279;1245;96632;-85
2023/12/03 02:08:00;;;;;;;69.40;41.50;;;;;;;-2.70;82.38;96654.19;107124;1245;97003;-85
2023/12/03 02:10:26;;;;;;;67.70;42.70;;;;;;;-2.70;82.33;96654.72;106889;1254;96755;-85
2023/12/03 02:12:53;;;;;;;68.80;42.30;;;;;;;-2.68;82.37;96655.40;107110;1245;96699;-85
2023/12/03 02:15:20;;;;;;;72.70;42.80;;;;;;;-2.69;82.33;96655.13;107169;1244;97563;-86
2023/12/03 02:17:46;;;;;;;70.50;43.20;;;;;;;-2.73;82.30;96658.64;107367;1238;97479;-75
2023/12/03 02:20:13;;;;;;;74.10;43.90;;;;;;;-2.75;82.30;96670.97;107322;1240;102079;-76
2023/12/03 02:23:01;;;;;;;72.30;44.70;;;;;;;-2.74;82.40;96685.00;107317;1238;97047;-75
2023/12/03 02:25:28;;;;;;;71.70;44.50;;;;;;;-2.74;82.26;96690.42;107324;1252;99873;-76
2023/12/03 02:27:57;;;;;;;70.50;43.90;;;;;;;-2.74;82.14;96699.10;107360;1244;96802;-76
2023/12/03 02:30:23;;;;;;;71.30;45.40;;;;;;;-2.71;82.26;96694.04;107358;1244;97113;-75
2023/12/03 02:32:50;;;;;;;74.90;45.40;;;;;;;-2.67;82.26;96695.98;107317;1244;96856;-75
2023/12/03 02:35:16;;;;;;;72.60;44.80;;;;;;;-2.67;82.20;96698.95;107312;1250;97512;-78
2023/12/03 02:37:43;;;;;;;75.60;47.10;;;;;;;-2.69;82.02;96705.88;107351;1238;97362;-77
2023/12/03 02:40:10;;;;;;;75.50;47.50;;;;;;;-2.71;82.01;96713.23;107299;1251;97095;-76
2023/12/03 02:42:36;;;;;;;73.80;46.20;;;;;;;-2.71;82.04;96718.02;107336;1250;97111;-76
2023/12/03 02:45:03;;;;;;;73.60;47.00;;;;;;;-2.73;82.05;96724.19;107425;1244;97636;-77
2023/12/03 02:47:32;;;;;;;73.10;46.10;;;;;;;-2.79;82.00;96723.75;107353;1244;97115;-86
2023/12/03 02:49:59;;;;;;;68.40;44.90;;;;;;;-2.86;81.93;96725.77;107324;1254;96547;-86
2023/12/03 02:52:25;;;;;;;73.20;46.50;;;;;;;-2.92;81.93;96731.47;107383;1254;97810;-86
2023/12/03 02:54:53;;;;;;;77.50;47.90;;;;;;;-2.96;82.02;96736.09;106845;1254;96868;-77
2023/12/03 02:57:19;;;;;;;75.90;47.00;;;;;;;-2.94;82.27;96733.59;106938;1251;97119;-84
2023/12/03 02:59:46;;;;;;;69.90;46.10;;;;;;;-2.91;82.35;96733.77;106891;1242;97917;-87
2023/12/03 03:02:13;;;;;;;70.60;44.80;;;;;;;-2.87;82.28;96734.36;106948;1247;97957;-84
2023/12/03 03:04:39;;;;;;;68.80;44.40;;;;;;;-2.84;82.28;96742.14;106917;1247;96659;-86
2023/12/03 03:07:06;;;;;;;65.80;42.70;;;;;;;-2.82;82.06;96750.59;106920;1247;97680;-87
2023/12/03 03:09:32;;;;;;;63.80;43.50;;;;;;;-2.82;81.99;96752.00;106916;1248;97691;-86
2023/12/03 03:11:59;;;;;;;61.80;41.50;;;;;;;-2.81;82.05;96752.75;106937;1248;97177;-85
2023/12/03 03:14:25;;;;;;;61.80;40.10;;;;;;;-2.81;81.88;96755.64;106876;1248;97810;-83
2023/12/03 03:16:52;;;;;;;56.90;40.20;;;;;;;-2.84;81.71;96761.02;106942;1251;96751;-84
2023/12/03 03:19:18;;;;;;;57.90;39.00;;;;;;;-2.90;81.61;96761.66;106930;1248;97255;-83
2023/12/03 03:21:45;;;;;;;58.50;39.40;;;;;;;-2.94;81.53;96761.95;106865;1245;97081;-83
2023/12/03 03:24:12;;;;;;;51.80;35.30;;;;;;;-2.96;81.54;96766.54;106853;1248;97301;-82
2023/12/03 03:26:41;;;;;;;56.60;37.90;;;;;;;-2.95;81.56;96772.45;107198;1245;97480;-82
2023/12/03 03:29:15;;;;;;;54.30;37.00;;;;;;;-2.91;81.66;96775.59;107315;1245;99857;-83
2023/12/03 03:31:42;;;;;;;54.00;37.60;;;;;;;-2.92;81.66;96778.15;107375;1243;96638;-76
2023/12/03 03:34:09;;;;;;;54.50;37.30;;;;;;;-2.91;81.64;96778.38;107374;1245;96603;-75
2023/12/03 03:36:36;;;;;;;53.20;36.70;;;;;;;-2.88;81.76;96779.52;107310;1244;96595;-75
2023/12/03 03:39:03;;;;;;;50.60;34.60;;;;;;;-2.86;81.61;96784.79;107327;1245;96556;-75
2023/12/03 03:41:35;;;;;;;49.00;34.30;;;;;;;-2.87;81.47;96787.02;107407;1238;96610;-75
2023/12/03 03:44:01;;;;;;;;;;;;;;;-2.87;81.39;96790.85;107372;1239;97365;-75
2023/12/03 03:46:28;;;;;;;45.90;31.10;;;;;;;-2.87;81.21;96794.23;107359;1238;97893;-75
2023/12/03 03:48:55;;;;;;;45.40;32.20;;;;;;;-2.86;81.16;96794.61;107088;1238;96592;-76
2023/12/03 03:51:22;;;;;;;44.10;30.30;;;;;;;-2.91;80.90;96791.92;107306;1238;97847;-88
2023/12/03 03:53:56;;;;;;;41.70;30.20;;;;;;;-2.99;80.84;96791.07;107368;1243;96982;-87
2023/12/03 03:56:23;;;;;;;39.60;29.30;;;;;;;-3.01;80.94;96788.60;107363;1245;101132;-85
2023/12/03 03:58:58;;;;;;;39.70;28.30;;;;;;;-3.00;80.93;96792.80;107395;1248;96549;-85
2023/12/03 04:01:25;;;;;;;40.10;28.60;;;;;;;-2.96;81.08;96798.19;107299;1252;99834;-77
2023/12/03 04:03:51;;;;;;;39.00;27.50;;;;;;;-2.93;80.89;96806.70;107338;1239;96527;-74
2023/12/03 04:06:21;;;;;;;35.30;25.90;;;;;;;-2.90;80.76;96811.56;107422;1251;96584;-75
2023/12/03 04:08:48;;;;;;;34.90;25.60;;;;;;;-2.90;80.55;96817.86;107381;1245;101160;-75
2023/12/03 04:11:15;;;;;;;35.10;24.60;;;;;;;-2.92;80.39;96822.09;107345;1244;96649;-78
2023/12/03 04:13:42;;;;;;;34.30;24.10;;;;;;;-2.98;80.29;96828.33;107302;1244;96587;-83
2023/12/03 04:16:08;;;;;;;33.90;24.60;;;;;;;-3.02;80.23;96826.75;107261;1245;97499;-74
2023/12/03 04:18:37;;;;;;;35.60;24.60;;;;;;;-3.08;80.05;96826.79;107325;1238;97105;-74
2023/12/03 04:21:04;;;;;;;33.10;24.30;;;;;;;-3.09;80.04;96830.81;107225;1245;101511;-74
2023/12/03 04:23:30;;;;;;;29.30;21.60;;;;;;;-3.09;80.04;96827.98;107216;1244;96849;-75
2023/12/03 04:25:57;;;;;;;28.30;20.50;;;;;;;-3.10;80.00;96829.42;107156;1245;96615;-75
2023/12/03 04:28:24;;;;;;;27.80;20.10;;;;;;;-3.14;79.90;96828.77;107168;1251;97470;-78
2023/12/03 04:30:50;;;;;;;28.90;21.30;;;;;;;-3.19;79.69;96829.25;107464;1240;97353;-75
2023/12/03 04:33:19;;;;;;;28.70;20.70;;;;;;;-3.25;79.66;96828.85;107353;1245;98439;-77
2023/12/03 04:35:46;;;;;;;26.80;20.20;;;;;;;-3.27;79.54;96833.79;107283;1239;97768;-76
2023/12/03 04:38:12;;;;;;;22.80;17.50;;;;;;;-3.28;79.40;96837.80;107378;1244;97907;-75
2023/12/03 04:40:42;;;;;;;21.20;15.90;;;;;;;-3.28;79.28;96842.35;107387;1238;97681;-76
2023/12/03 04:43:28;;;;;;;19.40;14.60;;;;;;;-3.27;79.16;96850.52;107371;1245;101718;-77
2023/12/03 04:46:16;;;;;;;20.00;15.10;;;;;;;-3.28;79.03;96854.87;106973;1254;100111;-77
2023/12/03 04:49:01;;;;;;;20.10;15.50;;;;;;;-3.33;78.90;96860.36;107296;1243;96908;-75
2023/12/03 04:51:33;;;;;;;20.10;15.30;;;;;;;-3.31;78.86;96865.71;106807;1250;97260;-83
2023/12/03 04:54:12;;;;;;;17.90;13.30;;;;;;;-3.32;78.79;96865.20;107423;1251;101191;-77
2023/12/03 04:56:38;;;;;;;18.30;14.10;;;;;;;-3.37;78.58;96867.48;107319;1250;101391;-77
2023/12/03 04:59:06;;;;;;;20.30;13.40;;;;;;;-3.41;78.64;96878.23;107402;1254;96587;-75
2023/12/03 05:01:33;;;;;;;17.60;13.80;;;;;;;-3.40;78.56;96881.80;107032;1248;96724;-83
2023/12/03 05:04:02;;;;;;;20.00;14.10;;;;;;;-3.40;78.63;96889.58;107370;1239;97793;-83
2023/12/03 05:06:40;;;;;;;19.30;14.10;;;;;;;-3.40;78.57;96902.40;107382;1245;101130;-81
2023/12/03 05:09:09;;;;;;;17.80;13.50;;;;;;;-3.37;78.47;96910.88;107006;1247;101438;-88
2023/12/03 05:11:54;;;;;;;17.40;14.20;;;;;;;-3.34;78.54;96913.93;107164;1245;259158;-83
2023/12/03 05:14:20;;;;;;;18.60;13.00;;;;;;;-3.32;78.50;96923.82;107392;1244;96597;-83
2023/12/03 05:16:47;;;;;;;17.30;13.30;;;;;;;-3.36;78.28;96932.59;107393;1249;97503;-85
2023/12/03 05:19:18;;;;;;;17.90;13.00;;;;;;;-3.39;78.00;96934.33;107417;1244;97490;-86
2023/12/03 05:21:45;;;;;;;16.80;12.80;;;;;;;-3.38;78.03;96941.60;107368;1249;101196;-89
2023/12/03 05:24:14;;;;;;;15.10;12.10;;;;;;;-3.38;77.72;96939.65;107366;1254;97075;-85
2023/12/03 05:26:44;;;;;;;15.10;11.80;;;;;;;-3.38;77.56;96942.39;107333;1245;96584;-84
2023/12/03 05:29:10;;;;;;;16.20;11.50;;;;;;;-3.40;77.59;96947.58;107345;1251;98323;-83
2023/12/03 05:31:44;;;;;;;17.00;12.90;;;;;;;-3.38;77.59;96953.00;107245;1245;97790;-79
2023/12/03 05:34:10;;;;;;;16.30;12.20;;;;;;;-3.35;77.60;96953.67;107376;1245;99732;-76
2023/12/03 05:36:46;;;;;;;15.60;11.40;;;;;;;-3.31;77.62;96952.22;107306;1247;97035;-80
2023/12/03 05:39:12;;;;;;;16.20;11.40;;;;;;;-3.29;77.52;96953.65;107285;1251;97116;-77
2023/12/03 05:41:41;;;;;;;16.10;11.60;;;;;;;-3.35;77.41;96950.84;107333;1245;97077;-77
2023/12/03 05:44:08;;;;;;;14.10;10.70;;;;;;;-3.46;77.24;96950.58;107395;1243;101312;-76
2023/12/03 05:46:45;;;;;;;15.30;11.60;;;;;;;-3.50;77.31;96955.77;107281;1238;96699;-76
2023/12/03 05:49:14;;;;;;;11.80;9.20;;;;;;;-3.48;77.41;96960.63;107337;1251;99823;-77
2023/12/03 05:51:44;;;;;;;13.20;9.90;;;;;;;-3.44;77.44;96968.05;107293;1239;96856;-83
2023/12/03 05:54:21;;;;;;;18.60;11.50;;;;;;;-3.44;76.81;96971.39;107218;1251;98126;-83
2023/12/03 05:56:47;;;;;;;13.80;9.70;;;;;;;-3.45;76.86;96975.14;107002;1247;101097;-83
2023/12/03 05:59:14;;;;;;;11.10;8.60;;;;;;;-3.45;76.89;96968.41;107350;1244;97259;-82
2023/12/03 06:01:40;;;;;;;35.30;16.00;;;;;;;-3.44;76.65;96970.84;107321;1245;97106;-76
2023/12/03 06:04:07;;;;;;;19.10;11.30;;;;;;;-3.45;76.40;96967.60;107452;1253;97109;-77
2023/12/03 06:06:35;;;;;;;21.70;12.60;;;;;;;-3.48;75.66;96967.12;107091;1248;101978;-86
2023/12/03 06:09:04;;;;;;;19.20;12.50;;;;;;;-3.51;75.87;96977.42;107316;1238;96568;-81
2023/12/03 06:11:32;;;;;;;20.10;12.50;;;;;;;-3.53;76.05;96980.42;107372;1254;99007;-82
2023/12/03 06:13:59;;;;;;;18.90;11.70;;;;;;;-3.58;75.95;96984.20;107386;1245;97142;-82
2023/12/03 06:16:28;;;;;;;16.70;10.50;;;;;;;-3.62;76.28;96984.59;107405;1243;96702;-76
2023/12/03 06:18:56;;;;;;;17.60;10.80;;;;;;;-3.62;76.63;96985.83;107386;1245;101130;-78
2023/12/03 06:21:23;;;;;;;21.70;12.00;;;;;;;-3.57;76.88;96991.05;107050;1245;96644;-75
2023/12/03 06:23:49;;;;;;;17.20;9.90;;;;;;;-3.52;76.93;96990.70;107122;1248;96790;-75
2023/12/03 06:26:16;;;;;;;15.90;11.00;;;;;;;-3.52;76.77;96991.21;107402;1245;96653;-76
2023/12/03 06:28:42;;;;;;;17.20;11.50;;;;;;;-3.56;76.64;96989.69;107447;1244;96653;-77
2023/12/03 06:31:09;;;;;;;18.30;11.60;;;;;;;-3.61;76.78;96994.10;107433;1251;96649;-77
2023/12/03 06:33:36;;;;;;;12.80;9.50;;;;;;;-3.63;76.93;97000.33;107384;1244;99969;-75
2023/12/03 06:36:02;;;;;;;10.60;8.90;;;;;;;-3.63;77.07;97004.52;107335;1245;96566;-75
2023/12/03 06:38:29;;;;;;;10.30;8.40;;;;;;;-3.63;77.22;97007.50;107401;1245;96587;-76
2023/12/03 06:41:03;;;;;;;9.10;8.10;;;;;;;-3.64;77.25;97010.41;107403;1241;96785;-77
2023/12/03 06:43:30;;;;;;;11.10;9.30;;;;;;;-3.62;77.36;97015.65;107342;1238;99896;-76
2023/12/03 06:46:01;;;;;;;12.90;10.60;;;;;;;-3.59;77.39;97020.39;107394;1245;97052;-85
2023/12/03 06:48:28;;;;;;;12.20;10.30;;;;;;;-3.61;77.39;97027.90;106901;1246;96565;-85
2023/12/03 06:50:55;;;;;;;18.20;14.00;;;;;;;-3.60;77.50;97034.84;107353;1251;97467;-87
2023/12/03 06:53:21;;;;;;;12.30;9.60;;;;;;;-3.58;77.60;97035.25;107318;1245;97839;-85
2023/12/03 06:55:48;;;;;;;10.20;8.70;;;;;;;-3.58;77.47;97042.80;107417;1245;97464;-88
2023/12/03 06:58:17;;;;;;;10.10;7.80;;;;;;;-3.62;77.27;97049.42;107386;1245;97107;-85
2023/12/03 07:00:44;;;;;;;13.00;10.10;;;;;;;-3.63;77.36;97057.34;107348;1251;100790;-85
2023/12/03 07:03:10;;;;;;;12.40;10.20;;;;;;;-3.69;77.36;97063.11;107389;1246;96786;-77
2023/12/03 07:05:38;;;;;;;11.90;9.10;;;;;;;-3.73;77.42;97069.41;107313;1245;98005;-85
2023/12/03 07:08:06;;;;;;;9.80;8.60;;;;;;;-3.79;77.46;97071.15;107423;1243;96802;-85
2023/12/03 07:10:33;;;;;;;14.50;10.50;;;;;;;-3.82;77.49;97066.87;107396;1244;97503;-84
2023/12/03 07:12:59;;;;;;;18.70;12.40;;;;;;;-3.85;77.78;97070.06;107388;1243;97973;-87
2023/12/03 07:15:26;;;;;;;11.50;8.50;;;;;;;-3.88;77.89;97070.21;107463;1254;97794;-87
2023/12/03 07:17:52;;;;;;;10.60;8.60;;;;;;;-3.90;77.93;97075.30;107272;1244;97032;-82
2023/12/03 07:20:21;;;;;;;11.30;9.10;;;;;;;-3.90;78.16;97069.45;107369;1239;97493;-84
2023/12/03 07:22:47;;;;;;;17.90;13.20;;;;;;;-3.88;78.29;97075.51;107378;1252;102203;-83
2023/12/03 07:25:14;;;;;;;11.70;9.50;;;;;;;-3.87;78.40;97073.83;107331;1245;96601;-76
2023/12/03 07:27:40;;;;;;;12.40;9.70;;;;;;;-3.83;78.38;97079.64;107389;1252;96577;-76
2023/12/03 07:30:07;;;;;;;13.00;9.40;;;;;;;-3.83;78.42;97083.60;107444;1245;97135;-78
2023/12/03 07:32:36;;;;;;;12.00;9.60;;;;;;;-3.81;78.47;97087.70;107379;1245;102150;-77
2023/12/03 07:35:03;;;;;;;12.20;10.30;;;;;;;-3.79;78.49;97087.14;107336;1243;101252;-77
2023/12/03 07:37:30;;;;;;;12.40;9.60;;;;;;;-3.79;78.65;97091.21;107338;1254;97157;-76
2023/12/03 07:39:56;;;;;;;22.70;14.20;;;;;;;-3.77;78.62;97101.94;107353;1244;96584;-77
2023/12/03 07:42:26;;;;;;;15.80;11.00;;;;;;;-3.77;78.54;97098.64;107437;1251;97464;-84
2023/12/03 07:44:53;;;;;;;10.90;9.10;;;;;;;-3.77;78.75;97098.07;107332;1242;101463;-82
2023/12/03 07:47:19;;;;;;;12.50;9.40;;;;;;;-3.78;78.65;97095.86;107407;1238;97787;-87
2023/12/03 07:49:51;;;;;;;11.40;9.40;;;;;;;-3.74;78.88;97099.06;107394;1245;97015;-84
2023/12/03 07:52:21;;;;;;;;;;;;;;;-3.73;78.86;97102.61;107355;1239;97146;-84
2023/12/03 07:54:47;;;;;;;13.00;9.80;;;;;;;-3.73;78.95;97106.70;107348;1251;102473;-83
2023/12/03 07:57:14;;;;;;;13.00;10.00;;;;;;;-3.70;79.01;97109.77;107361;1251;97921;-84
2023/12/03 07:59:40;;;;;;;13.40;10.30;;;;;;;-3.65;79.25;97109.85;107394;1253;96679;-84
2023/12/03 08:02:07;;;;;;;12.90;11.10;;;;;;;-3.62;79.19;97108.17;107377;1251;96668;-88
2023/12/03 08:04:33;;;;;;;14.10;11.00;;;;;;;-3.60;79.07;97113.67;107343;1242;102051;-78
2023/12/03 08:07:00;;;;;;;11.50;9.10;;;;;;;-3.60;79.05;97117.40;107373;1251;97666;-77
2023/12/03 08:09:34;;;;;;;14.00;11.00;;;;;;;-3.62;79.12;97124.57;107336;1242;96894;-77
2023/12/03 08:12:03;;;;;;;12.60;9.70;;;;;;;-3.60;79.21;97130.24;107347;1244;96901;-77
2023/12/03 08:14:29;;;;;;;12.40;9.60;;;;;;;-3.59;79.30;97133.83;107064;1247;97109;-76
2023/12/03 08:16:56;;;;;;;14.70;10.30;;;;;;;-3.59;79.38;97137.33;107441;1239;97477;-84
2023/12/03 08:19:25;;;;;;;14.90;10.30;;;;;;;-3.62;79.43;97140.39;107384;1242;97138;-83
2023/12/03 08:21:51;;;;;;;13.30;9.90;;;;;;;-3.64;79.56;97143.40;107414;1245;96555;-76
2023/12/03 08:24:20;;;;;;;14.40;11.30;;;;;;;-3.61;79.59;97147.84;107344;1244;97421;-76
2023/12/03 08:26:48;;;;;;;14.30;10.40;;;;;;;-3.59;79.60;97153.38;107457;1238;97797;-77
2023/12/03 08:29:14;;;;;;;16.20;11.90;;;;;;;-3.60;79.68;97161.82;107452;1242;96584;-77
2023/12/03 08:31:41;;;;;;;18.50;14.00;;;;;;;-3.57;79.73;97163.53;107391;1251;97494;-77
2023/12/03 08:34:07;;;;;;;18.40;13.70;;;;;;;-3.52;79.84;97166.26;107384;1238;97522;-75
2023/12/03 08:36:55;;;;;;;18.70;14.70;;;;;;;-3.48;79.90;97170.17;107511;1250;96546;-75
2023/12/03 08:39:22;;;;;;;22.10;15.90;;;;;;;-3.47;79.97;97172.70;108533;1238;101125;-83
2023/12/03 08:41:49;;;;;;;24.10;18.30;;;;;;;-3.45;79.99;97176.92;107402;1252;97112;-77
2023/12/03 08:44:15;;;;;;;25.90;19.00;;;;;;;-3.44;80.17;97181.89;107357;1244;96822;-77
2023/12/03 08:46:45;;;;;;;22.80;18.30;;;;;;;-3.39;80.06;97189.72;107371;1242;97740;-78
2023/12/03 08:49:14;;;;;;;28.90;20.70;;;;;;;-3.34;80.07;97191.61;107389;1241;96636;-76
2023/12/03 08:51:51;;;;;;;26.20;18.70;;;;;;;-3.32;80.19;97199.69;107428;1248;101113;-76
2023/12/03 08:54:27;;;;;;;24.90;18.30;;;;;;;-3.32;80.08;97201.52;107004;1247;101225;-77
2023/12/03 08:56:53;;;;;;;28.00;18.90;;;;;;;-3.31;80.08;97204.73;107429;1242;98845;-77
2023/12/03 08:59:26;;;;;;;29.10;20.50;;;;;;;-3.29;80.21;97203.34;107364;1239;96696;-78
2023/12/03 09:01:58;;;;;;;28.30;20.60;;;;;;;-3.28;80.22;97206.80;107366;1245;97177;-83
2023/12/03 09:04:26;;;;;;;28.20;19.50;;;;;;;-3.25;80.21;97210.94;107409;1242;101231;-84
2023/12/03 09:07:01;;;;;;;27.90;19.30;;;;;;;-3.23;80.17;97209.50;107067;1247;100556;-82
2023/12/03 09:09:58;;;;;;;33.70;24.10;;;;;;;-3.15;80.75;97210.46;107188;1244;99112;-84
2023/12/03 09:12:30;;;;;;;30.70;20.40;;;;;;;-3.07;80.73;97214.67;106770;1249;96808;-82
2023/12/03 09:14:59;;;;;;;32.50;21.80;;;;;;;-3.07;80.50;97215.05;106765;1245;96489;-82
2023/12/03 09:17:29;;;;;;;26.90;18.60;;;;;;;-3.04;80.52;97216.68;106699;1251;101417;-78
2023/12/03 09:19:59;;;;;;;24.20;17.80;;;;;;;-3.01;80.48;97217.84;106600;1250;100390;-77
2023/12/03 09:22:45;;;;;;;24.90;17.50;;;;;;;-2.98;80.32;97216.55;106541;1251;99226;-82
2023/12/03 09:25:15;;;;;;;24.20;17.40;;;;;;;-2.96;80.25;97220.77;106487;1251;98063;-83
2023/12/03 09:27:42;;;;;;;25.60;18.60;;;;;;;-2.95;80.17;97219.96;106816;1249;97241;-82
2023/12/03 09:30:18;;;;;;;24.80;18.00;;;;;;;-2.94;80.27;97222.84;106650;1251;102489;-82
2023/12/03 09:32:47;;;;;;;30.80;20.50;;;;;;;-2.93;80.29;97224.39;106762;1252;100444;-78
2023/12/03 09:35:14;;;;;;;27.00;19.20;;;;;;;-2.93;80.16;97223.67;106784;1251;99953;-78
2023/12/03 09:37:41;;;;;;;26.30;19.00;;;;;;;-2.93;80.20;97229.45;106796;1248;96626;-85
2023/12/03 09:40:08;;;;;;;29.70;20.30;;;;;;;-2.87;80.27;97229.00;106772;1257;97055;-76
2023/12/03 09:42:39;;;;;;;29.60;19.40;;;;;;;-2.88;80.19;97229.56;106759;1251;96783;-75
2023/12/03 09:45:09;;;;;;;40.50;26.40;;;;;;;-2.84;80.32;97229.23;106488;1254;100422;-76
2023/12/03 09:47:53;;;;;;;59.30;34.90;;;;;;;-2.80;80.31;97228.48;106600;1260;97975;-83
2023/12/03 09:50:29;;;;;;;47.80;27.30;;;;;;;-2.76;80.20;97234.52;106900;1245;97121;-82
2023/12/03 09:53:14;;;;;;;55.10;30.10;;;;;;;-2.76;80.02;97236.30;107451;1242;98342;-83
2023/12/03 11:24:30;;;;;;;19.40;14.30;;;;;;;-2.29;78.87;97314.12;107581;1243;98466;-78
2023/12/03 11:27:07;;;;;;;25.50;17.30;;;;;;;-2.29;79.08;97319.02;107449;1242;96991;-77
2023/12/03 11:29:52;;;;;;;26.80;18.20;;;;;;;-2.24;79.07;97318.59;107483;1250;101206;-77
2023/12/03 11:32:25;;;;;;;19.00;12.10;;;;;;;-2.23;79.05;97322.01;107524;1241;100417;-83
2023/12/03 11:35:16;;;;;;;18.80;13.30;;;;;;;-2.24;79.12;97324.25;107386;1242;108912;-79
2023/12/03 11:37:49;;;;;;;16.20;11.50;;;;;;;-2.23;79.13;97327.27;106897;1257;96652;-77
2023/12/03 11:40:36;;;;;;;22.20;15.30;;;;;;;-2.19;79.18;97331.17;106828;1250;97151;-78
2023/12/03 11:43:09;;;;;;;21.70;14.70;;;;;;;-2.13;79.39;97332.75;106590;1259;101240;-77
2023/12/03 11:45:44;;;;;;;23.00;15.80;;;;;;;-2.09;79.44;97337.71;106579;1262;99947;-77
2023/12/03 11:48:16;;;;;;;20.10;13.20;;;;;;;-2.04;79.34;97340.26;106014;1254;99294;-76
2023/12/03 11:50:47;;;;;;;14.50;10.20;;;;;;;-2.00;79.03;97344.81;106200;1257;96707;-75
2023/12/03 11:53:24;;;;;;;14.40;10.10;;;;;;;-1.98;78.96;97343.21;106388;1253;97832;-79
2023/12/03 11:56:21;;;;;;;16.40;11.30;;;;;;;-1.95;78.60;97342.45;105821;1259;101623;-77
2023/12/03 11:58:50;;;;;;;18.00;13.70;;;;;;;-1.94;78.48;97348.74;106360;1253;101363;-79
2023/12/03 12:01:17;;;;;;;18.40;12.80;;;;;;;-1.93;78.36;97350.91;106236;1256;98811;-86
2023/12/03 12:03:48;;;;;;;15.00;11.40;;;;;;;-1.94;78.16;97352.95;106293;1251;96688;-87
2023/12/03 12:06:36;;;;;;;16.70;11.80;;;;;;;-1.93;78.20;97354.40;106365;1254;97250;-86
2023/12/03 12:09:22;;;;;;;16.40;11.40;;;;;;;-1.94;78.14;97356.08;106604;1253;101191;-86
2023/12/03 12:11:59;;;;;;;15.60;10.40;;;;;;;-1.98;78.07;97356.96;106719;1251;100236;-78
2023/12/03 12:14:40;;;;;;;14.20;10.40;;;;;;;-2.01;78.04;97359.88;107033;1255;98930;-82
2023/12/03 12:17:27;;;;;;;16.20;10.60;;;;;;;-1.98;78.13;97364.78;107070;1245;96648;-83
2023/12/03 12:19:56;;;;;;;17.60;12.20;;;;;;;-1.95;78.30;97362.36;107023;1243;97078;-83
2023/12/03 12:22:24;;;;;;;16.00;10.80;;;;;;;-1.92;78.27;97360.65;107033;1247;100983;-83
2023/12/03 12:24:54;;;;;;;17.80;12.00;;;;;;;-1.88;77.87;97365.62;107186;1247;101072;-82
2023/12/03 12:27:25;;;;;;;19.90;13.40;;;;;;;-1.90;77.53;97365.05;107155;1245;97689;-83
2023/12/03 12:29:57;;;;;;;23.10;15.30;;;;;;;-1.90;77.66;97366.64;106921;1247;97896;-83
2023/12/03 12:32:25;;;;;;;17.50;12.20;;;;;;;-1.87;77.73;97367.16;107056;1247;97123;-76
2023/12/03 12:35:03;;;;;;;21.20;13.50;;;;;;;-1.84;77.90;97371.41;106940;1248;101129;-83
2023/12/03 12:37:42;;;;;;;21.50;13.80;;;;;;;-1.79;77.92;97373.83;106938;1249;100244;-82
2023/12/03 12:40:11;;;;;;;17.40;11.60;;;;;;;-1.76;77.85;97376.21;106927;1248;99751;-87
2023/12/03 12:42:52;;;;;;;17.70;12.40;;;;;;;-1.75;77.75;97381.11;106919;1250;97151;-83
2023/12/03 12:45:56;;;;;;;20.10;14.70;;;;;;;-1.77;77.64;97382.49;107121;1246;98327;-83
2023/12/03 12:48:30;;;;;;;26.40;15.90;;;;;;;-1.83;77.73;97384.92;107365;1252;102415;-76
2023/12/03 12:51:00;;;;;;;23.60;16.30;;;;;;;-1.86;77.82;97384.80;107191;1254;100619;-77